sensor_id;sensor_type;location;lat;lon;timestamp;P1;durP1;ratioP1;P2;durP2;ratioP2
40058;SDS011;25763;49.972;8.568;2023-02-15T00:01:49;12.93;;;11.93;;
40058;SDS011;25763;49.972;8.568;2023-02-15T00:04:15;14.63;;;13.27;;
40058;SDS011;25763;49.972;8.568;2023-02-15T00:06:42;12.40;;;11.38;;
40058;SDS011;25763;49.972;8.568;2023-02-15T00:09:08;14.15;;;13.15;;
40058;SDS011;25763;49.972;8.568;2023-02-15T00:11:34;13.52;;;12.32;;
40058;SDS011;25763;49.972;8.568;2023-02-15T00:14:18;10.68;;;9.88;;
40058;SDS011;25763;49.972;8.568;2023-02-15T00:16:45;11.38;;;10.48;;
40058;SDS011;25763;49.972;8.568;2023-02-15T00:19:11;12.88;;;11.93;;
40058;SDS011;25763;49.972;8.568;2023-02-15T00:21:38;13.30;;;12.00;;
40058;SDS011;25763;49.972;8.568;2023-02-15T00:24:05;12.00;;;11.20;;
40058;SDS011;25763;49.972;8.568;2023-02-15T00:26:31;12.10;;;11.25;;
40058;SDS011;25763;49.972;8.568;2023-02-15T00:28:57;11.80;;;11.00;;
40058;SDS011;25763;49.972;8.568;2023-02-15T00:31:30;11.90;;;10.50;;
40058;SDS011;25763;49.972;8.568;2023-02-15T00:34:03;13.15;;;12.10;;
40058;SDS011;25763;49.972;8.568;2023-02-15T00:36:32;14.32;;;12.88;;
40058;SDS011;25763;49.972;8.568;2023-02-15T00:38:57;11.15;;;10.45;;
40058;SDS011;25763;49.972;8.568;2023-02-15T00:41:23;12.93;;;12.00;;
40058;SDS011;25763;49.972;8.568;2023-02-15T00:43:48;11.95;;;10.90;;
40058;SDS011;25763;49.972;8.568;2023-02-15T00:46:14;12.20;;;11.32;;
40058;SDS011;25763;49.972;8.568;2023-02-15T00:48:39;12.80;;;11.75;;
40058;SDS011;25763;49.972;8.568;2023-02-15T00:51:04;12.90;;;11.95;;
40058;SDS011;25763;49.972;8.568;2023-02-15T00:53:30;11.73;;;10.93;;
40058;SDS011;25763;49.972;8.568;2023-02-15T00:55:56;10.35;;;9.65;;
40058;SDS011;25763;49.972;8.568;2023-02-15T00:58:22;12.15;;;11.25;;
40058;SDS011;25763;49.972;8.568;2023-02-15T01:00:48;12.57;;;11.63;;
40058;SDS011;25763;49.972;8.568;2023-02-15T01:03:15;13.15;;;12.25;;
40058;SDS011;25763;49.972;8.568;2023-02-15T01:05:41;12.02;;;11.13;;
40058;SDS011;25763;49.972;8.568;2023-02-15T01:08:07;13.85;;;12.60;;
40058;SDS011;25763;49.972;8.568;2023-02-15T01:10:33;12.07;;;11.10;;
40058;SDS011;25763;49.972;8.568;2023-02-15T01:12:58;11.85;;;10.95;;
40058;SDS011;25763;49.972;8.568;2023-02-15T01:15:24;11.77;;;10.90;;
40058;SDS011;25763;49.972;8.568;2023-02-15T01:17:49;11.55;;;10.73;;
40058;SDS011;25763;49.972;8.568;2023-02-15T01:20:22;14.68;;;12.48;;
40058;SDS011;25763;49.972;8.568;2023-02-15T01:22:50;12.35;;;11.45;;
40058;SDS011;25763;49.972;8.568;2023-02-15T01:25:17;11.57;;;10.68;;
40058;SDS011;25763;49.972;8.568;2023-02-15T01:27:43;13.90;;;12.75;;
40058;SDS011;25763;49.972;8.568;2023-02-15T01:30:09;11.55;;;10.75;;
40058;SDS011;25763;49.972;8.568;2023-02-15T01:32:35;12.15;;;11.27;;
40058;SDS011;25763;49.972;8.568;2023-02-15T01:35:00;12.90;;;11.75;;
40058;SDS011;25763;49.972;8.568;2023-02-15T01:37:26;12.50;;;11.55;;
40058;SDS011;25763;49.972;8.568;2023-02-15T01:39:51;12.80;;;11.65;;
40058;SDS011;25763;49.972;8.568;2023-02-15T01:42:21;13.50;;;12.50;;
40058;SDS011;25763;49.972;8.568;2023-02-15T01:44:53;13.38;;;12.15;;
40058;SDS011;25763;49.972;8.568;2023-02-15T01:48:24;13.38;;;12.25;;
40058;SDS011;25763;49.972;8.568;2023-02-15T01:50:31;10.77;;;10.07;;
40058;SDS011;25763;49.972;8.568;2023-02-15T01:56:09;12.95;;;11.80;;
40058;SDS011;25763;49.972;8.568;2023-02-15T01:58:38;13.60;;;12.30;;
40058;SDS011;25763;49.972;8.568;2023-02-15T02:01:03;12.73;;;11.70;;
40058;SDS011;25763;49.972;8.568;2023-02-15T02:06:12;13.48;;;12.45;;
40058;SDS011;25763;49.972;8.568;2023-02-15T02:08:38;13.57;;;12.30;;
40058;SDS011;25763;49.972;8.568;2023-02-15T02:11:09;13.20;;;12.13;;
40058;SDS011;25763;49.972;8.568;2023-02-15T02:13:35;12.75;;;11.85;;
40058;SDS011;25763;49.972;8.568;2023-02-15T02:16:04;12.27;;;11.40;;
40058;SDS011;25763;49.972;8.568;2023-02-15T02:18:50;13.93;;;12.13;;
40058;SDS011;25763;49.972;8.568;2023-02-15T02:21:46;12.18;;;11.13;;
40058;SDS011;25763;49.972;8.568;2023-02-15T02:40:43;11.77;;;10.82;;
40058;SDS011;25763;49.972;8.568;2023-02-15T02:43:22;11.65;;;10.85;;
40058;SDS011;25763;49.972;8.568;2023-02-15T02:45:58;11.32;;;10.52;;
40058;SDS011;25763;49.972;8.568;2023-02-15T02:48:32;12.27;;;11.27;;
40058;SDS011;25763;49.972;8.568;2023-02-15T02:50:58;12.25;;;11.10;;
40058;SDS011;25763;49.972;8.568;2023-02-15T02:53:24;12.40;;;11.50;;
40058;SDS011;25763;49.972;8.568;2023-02-15T02:55:51;11.95;;;10.95;;
40058;SDS011;25763;49.972;8.568;2023-02-15T02:58:22;11.00;;;10.13;;
40058;SDS011;25763;49.972;8.568;2023-02-15T03:00:55;11.38;;;10.57;;
40058;SDS011;25763;49.972;8.568;2023-02-15T03:06:17;13.70;;;12.40;;
40058;SDS011;25763;49.972;8.568;2023-02-15T03:08:51;12.10;;;9.90;;
40058;SDS011;25763;49.972;8.568;2023-02-15T03:11:23;11.27;;;10.48;;
40058;SDS011;25763;49.972;8.568;2023-02-15T03:13:48;12.77;;;11.82;;
40058;SDS011;25763;49.972;8.568;2023-02-15T03:16:15;13.65;;;11.88;;
40058;SDS011;25763;49.972;8.568;2023-02-15T03:18:53;12.18;;;11.32;;
40058;SDS011;25763;49.972;8.568;2023-02-15T03:21:27;12.18;;;11.32;;
40058;SDS011;25763;49.972;8.568;2023-02-15T03:24:07;12.15;;;11.15;;
40058;SDS011;25763;49.972;8.568;2023-02-15T03:26:35;13.23;;;12.15;;
40058;SDS011;25763;49.972;8.568;2023-02-15T03:29:02;14.57;;;13.13;;
40058;SDS011;25763;49.972;8.568;2023-02-15T03:31:31;13.35;;;12.30;;
40058;SDS011;25763;49.972;8.568;2023-02-15T03:34:00;12.35;;;11.45;;
40058;SDS011;25763;49.972;8.568;2023-02-15T03:36:34;13.68;;;12.48;;
40058;SDS011;25763;49.972;8.568;2023-02-15T03:39:11;13.52;;;12.45;;
40058;SDS011;25763;49.972;8.568;2023-02-15T03:44:43;12.10;;;11.30;;
40058;SDS011;25763;49.972;8.568;2023-02-15T03:47:19;13.10;;;11.98;;
40058;SDS011;25763;49.972;8.568;2023-02-15T03:49:57;11.27;;;10.48;;
40058;SDS011;25763;49.972;8.568;2023-02-15T03:52:27;12.27;;;11.38;;
40058;SDS011;25763;49.972;8.568;2023-02-15T03:54:54;13.45;;;12.48;;
40058;SDS011;25763;49.972;8.568;2023-02-15T04:00:09;12.27;;;11.38;;
40058;SDS011;25763;49.972;8.568;2023-02-15T04:05:31;12.98;;;12.15;;
40058;SDS011;25763;49.972;8.568;2023-02-15T04:07:56;12.65;;;11.70;;
40058;SDS011;25763;49.972;8.568;2023-02-15T04:10:21;13.18;;;12.25;;
40058;SDS011;25763;49.972;8.568;2023-02-15T04:13:05;16.88;;;12.38;;
40058;SDS011;25763;49.972;8.568;2023-02-15T04:15:31;11.93;;;11.02;;
40058;SDS011;25763;49.972;8.568;2023-02-15T04:18:15;12.98;;;11.88;;
40058;SDS011;25763;49.972;8.568;2023-02-15T04:20:43;14.45;;;13.05;;
40058;SDS011;25763;49.972;8.568;2023-02-15T04:23:27;11.93;;;11.00;;
40058;SDS011;25763;49.972;8.568;2023-02-15T04:26:11;13.18;;;12.27;;
40058;SDS011;25763;49.972;8.568;2023-02-15T04:28:36;12.30;;;11.10;;
40058;SDS011;25763;49.972;8.568;2023-02-15T04:31:02;11.90;;;11.10;;
40058;SDS011;25763;49.972;8.568;2023-02-15T04:33:27;11.38;;;10.60;;
40058;SDS011;25763;49.972;8.568;2023-02-15T04:35:52;14.38;;;13.15;;
40058;SDS011;25763;49.972;8.568;2023-02-15T04:38:18;12.90;;;11.75;;
40058;SDS011;25763;49.972;8.568;2023-02-15T04:40:43;11.40;;;10.65;;
40058;SDS011;25763;49.972;8.568;2023-02-15T04:43:08;13.45;;;12.45;;
40058;SDS011;25763;49.972;8.568;2023-02-15T04:45:34;12.55;;;11.68;;
40058;SDS011;25763;49.972;8.568;2023-02-15T04:47:59;12.00;;;11.10;;
40058;SDS011;25763;49.972;8.568;2023-02-15T04:50:24;11.85;;;11.00;;
40058;SDS011;25763;49.972;8.568;2023-02-15T04:52:50;12.75;;;11.65;;
40058;SDS011;25763;49.972;8.568;2023-02-15T04:55:15;13.15;;;12.05;;
40058;SDS011;25763;49.972;8.568;2023-02-15T04:57:41;13.68;;;12.57;;
40058;SDS011;25763;49.972;8.568;2023-02-15T05:00:06;12.77;;;11.88;;
40058;SDS011;25763;49.972;8.568;2023-02-15T05:02:33;15.02;;;13.75;;
40058;SDS011;25763;49.972;8.568;2023-02-15T05:04:59;12.38;;;11.48;;
40058;SDS011;25763;49.972;8.568;2023-02-15T05:07:24;13.48;;;12.48;;
40058;SDS011;25763;49.972;8.568;2023-02-15T05:09:49;16.83;;;13.75;;
40058;SDS011;25763;49.972;8.568;2023-02-15T05:12:14;12.38;;;11.48;;
40058;SDS011;25763;49.972;8.568;2023-02-15T05:14:40;11.88;;;11.00;;
40058;SDS011;25763;49.972;8.568;2023-02-15T05:17:05;14.63;;;13.43;;
40058;SDS011;25763;49.972;8.568;2023-02-15T05:19:31;14.57;;;13.40;;
40058;SDS011;25763;49.972;8.568;2023-02-15T05:21:56;14.18;;;12.77;;
40058;SDS011;25763;49.972;8.568;2023-02-15T05:24:22;14.38;;;13.02;;
40058;SDS011;25763;49.972;8.568;2023-02-15T05:27:06;13.50;;;12.43;;
40058;SDS011;25763;49.972;8.568;2023-02-15T05:29:51;13.85;;;12.75;;
40058;SDS011;25763;49.972;8.568;2023-02-15T05:32:17;11.00;;;10.30;;
40058;SDS011;25763;49.972;8.568;2023-02-15T05:34:42;11.88;;;11.07;;
40058;SDS011;25763;49.972;8.568;2023-02-15T05:37:07;11.35;;;10.57;;
40058;SDS011;25763;49.972;8.568;2023-02-15T05:39:33;12.10;;;11.15;;
40058;SDS011;25763;49.972;8.568;2023-02-15T05:41:59;11.50;;;10.70;;
40058;SDS011;25763;49.972;8.568;2023-02-15T05:44:25;10.93;;;10.13;;
40058;SDS011;25763;49.972;8.568;2023-02-15T05:46:50;12.10;;;11.00;;
40058;SDS011;25763;49.972;8.568;2023-02-15T05:49:16;11.55;;;10.52;;
40058;SDS011;25763;49.972;8.568;2023-02-15T05:51:41;11.65;;;10.85;;
40058;SDS011;25763;49.972;8.568;2023-02-15T05:54:06;11.38;;;10.57;;
40058;SDS011;25763;49.972;8.568;2023-02-15T05:56:32;12.27;;;11.43;;
40058;SDS011;25763;49.972;8.568;2023-02-15T05:58:57;12.85;;;10.80;;
40058;SDS011;25763;49.972;8.568;2023-02-15T06:01:22;12.48;;;11.57;;
40058;SDS011;25763;49.972;8.568;2023-02-15T06:03:48;12.50;;;11.60;;
40058;SDS011;25763;49.972;8.568;2023-02-15T06:06:14;10.70;;;9.90;;
40058;SDS011;25763;49.972;8.568;2023-02-15T06:08:40;12.10;;;11.10;;
40058;SDS011;25763;49.972;8.568;2023-02-15T06:11:06;13.05;;;11.90;;
40058;SDS011;25763;49.972;8.568;2023-02-15T06:13:32;10.93;;;10.13;;
40058;SDS011;25763;49.972;8.568;2023-02-15T06:15:58;11.85;;;11.05;;
40058;SDS011;25763;49.972;8.568;2023-02-15T06:18:24;11.95;;;11.10;;
40058;SDS011;25763;49.972;8.568;2023-02-15T06:20:49;12.40;;;11.48;;
40058;SDS011;25763;49.972;8.568;2023-02-15T06:23:14;11.98;;;11.10;;
40058;SDS011;25763;49.972;8.568;2023-02-15T06:25:40;13.55;;;12.43;;
40058;SDS011;25763;49.972;8.568;2023-02-15T06:28:06;11.88;;;10.73;;
40058;SDS011;25763;49.972;8.568;2023-02-15T06:30:31;10.98;;;10.05;;
40058;SDS011;25763;49.972;8.568;2023-02-15T06:32:57;11.07;;;10.35;;
40058;SDS011;25763;49.972;8.568;2023-02-15T06:35:22;11.88;;;10.95;;
40058;SDS011;25763;49.972;8.568;2023-02-15T06:37:48;11.70;;;10.90;;
40058;SDS011;25763;49.972;8.568;2023-02-15T06:40:14;12.48;;;11.23;;
40058;SDS011;25763;49.972;8.568;2023-02-15T06:42:43;11.82;;;11.02;;
40058;SDS011;25763;49.972;8.568;2023-02-15T06:45:09;12.45;;;11.55;;
40058;SDS011;25763;49.972;8.568;2023-02-15T06:47:35;11.57;;;10.68;;
40058;SDS011;25763;49.972;8.568;2023-02-15T06:50:00;10.50;;;9.80;;
40058;SDS011;25763;49.972;8.568;2023-02-15T06:52:25;12.23;;;11.32;;
40058;SDS011;25763;49.972;8.568;2023-02-15T06:54:51;10.93;;;10.23;;
40058;SDS011;25763;49.972;8.568;2023-02-15T06:57:16;11.30;;;10.55;;
40058;SDS011;25763;49.972;8.568;2023-02-15T06:59:42;11.02;;;10.30;;
40058;SDS011;25763;49.972;8.568;2023-02-15T07:02:08;12.30;;;11.35;;
40058;SDS011;25763;49.972;8.568;2023-02-15T07:04:36;13.02;;;11.77;;
40058;SDS011;25763;49.972;8.568;2023-02-15T07:07:01;13.57;;;12.48;;
40058;SDS011;25763;49.972;8.568;2023-02-15T07:09:26;12.57;;;11.70;;
40058;SDS011;25763;49.972;8.568;2023-02-15T07:11:52;11.55;;;10.73;;
40058;SDS011;25763;49.972;8.568;2023-02-15T07:14:36;10.60;;;9.90;;
40058;SDS011;25763;49.972;8.568;2023-02-15T07:17:01;12.75;;;11.80;;
40058;SDS011;25763;49.972;8.568;2023-02-15T07:19:26;12.48;;;11.65;;
40058;SDS011;25763;49.972;8.568;2023-02-15T07:21:52;12.07;;;11.27;;
40058;SDS011;25763;49.972;8.568;2023-02-15T07:24:17;12.00;;;11.05;;
40058;SDS011;25763;49.972;8.568;2023-02-15T07:26:43;11.82;;;11.00;;
40058;SDS011;25763;49.972;8.568;2023-02-15T07:29:08;12.82;;;11.85;;
40058;SDS011;25763;49.972;8.568;2023-02-15T07:31:34;11.38;;;10.57;;
40058;SDS011;25763;49.972;8.568;2023-02-15T07:33:59;11.82;;;10.98;;
40058;SDS011;25763;49.972;8.568;2023-02-15T07:36:25;12.23;;;11.43;;
40058;SDS011;25763;49.972;8.568;2023-02-15T07:38:50;12.93;;;11.88;;
40058;SDS011;25763;49.972;8.568;2023-02-15T07:41:16;10.57;;;9.80;;
40058;SDS011;25763;49.972;8.568;2023-02-15T07:43:42;11.80;;;10.82;;
40058;SDS011;25763;49.972;8.568;2023-02-15T07:46:10;10.27;;;9.57;;
40058;SDS011;25763;49.972;8.568;2023-02-15T07:48:37;10.63;;;9.73;;
40058;SDS011;25763;49.972;8.568;2023-02-15T07:51:04;12.38;;;11.48;;
40058;SDS011;25763;49.972;8.568;2023-02-15T07:53:31;11.50;;;10.50;;
40058;SDS011;25763;49.972;8.568;2023-02-15T07:56:04;10.82;;;10.00;;
40058;SDS011;25763;49.972;8.568;2023-02-15T07:58:32;11.70;;;10.80;;
40058;SDS011;25763;49.972;8.568;2023-02-15T08:01:17;11.65;;;10.85;;
40058;SDS011;25763;49.972;8.568;2023-02-15T08:03:44;10.70;;;9.93;;
40058;SDS011;25763;49.972;8.568;2023-02-15T08:06:09;11.18;;;10.27;;
40058;SDS011;25763;49.972;8.568;2023-02-15T08:08:36;10.90;;;9.95;;
40058;SDS011;25763;49.972;8.568;2023-02-15T08:11:06;10.82;;;10.05;;
40058;SDS011;25763;49.972;8.568;2023-02-15T08:16:36;11.30;;;10.18;;
40058;SDS011;25763;49.972;8.568;2023-02-15T08:21:32;11.10;;;10.30;;
40058;SDS011;25763;49.972;8.568;2023-02-15T08:23:58;11.48;;;10.68;;
40058;SDS011;25763;49.972;8.568;2023-02-15T08:26:25;12.13;;;11.20;;
40058;SDS011;25763;49.972;8.568;2023-02-15T08:28:52;10.25;;;9.55;;
40058;SDS011;25763;49.972;8.568;2023-02-15T08:31:17;11.40;;;10.48;;
40058;SDS011;25763;49.972;8.568;2023-02-15T08:33:43;12.05;;;10.90;;
40058;SDS011;25763;49.972;8.568;2023-02-15T08:36:14;16.73;;;11.15;;
40058;SDS011;25763;49.972;8.568;2023-02-15T08:38:41;11.43;;;10.67;;
40058;SDS011;25763;49.972;8.568;2023-02-15T08:41:11;11.00;;;10.10;;
40058;SDS011;25763;49.972;8.568;2023-02-15T08:43:41;11.00;;;10.23;;
40058;SDS011;25763;49.972;8.568;2023-02-15T08:46:07;10.68;;;9.98;;
40058;SDS011;25763;49.972;8.568;2023-02-15T08:48:34;10.98;;;10.20;;
40058;SDS011;25763;49.972;8.568;2023-02-15T08:51:04;12.98;;;11.80;;
40058;SDS011;25763;49.972;8.568;2023-02-15T08:53:35;11.35;;;10.48;;
40058;SDS011;25763;49.972;8.568;2023-02-15T08:56:01;10.85;;;10.05;;
40058;SDS011;25763;49.972;8.568;2023-02-15T08:58:26;10.93;;;10.13;;
40058;SDS011;25763;49.972;8.568;2023-02-15T09:00:53;10.55;;;9.82;;
40058;SDS011;25763;49.972;8.568;2023-02-15T09:03:19;12.18;;;11.27;;
40058;SDS011;25763;49.972;8.568;2023-02-15T09:05:44;14.02;;;12.90;;
40058;SDS011;25763;49.972;8.568;2023-02-15T09:08:10;10.55;;;9.85;;
40058;SDS011;25763;49.972;8.568;2023-02-15T09:10:35;11.63;;;10.82;;
40058;SDS011;25763;49.972;8.568;2023-02-15T09:13:00;11.80;;;11.00;;
40058;SDS011;25763;49.972;8.568;2023-02-15T09:15:26;12.02;;;10.98;;
40058;SDS011;25763;49.972;8.568;2023-02-15T09:17:51;11.70;;;10.80;;
40058;SDS011;25763;49.972;8.568;2023-02-15T09:20:17;12.20;;;11.30;;
40058;SDS011;25763;49.972;8.568;2023-02-15T09:22:43;11.35;;;10.55;;
40058;SDS011;25763;49.972;8.568;2023-02-15T09:25:08;12.20;;;11.13;;
40058;SDS011;25763;49.972;8.568;2023-02-15T09:27:33;12.43;;;11.50;;
40058;SDS011;25763;49.972;8.568;2023-02-15T09:29:59;13.57;;;12.52;;
40058;SDS011;25763;49.972;8.568;2023-02-15T09:32:24;12.18;;;11.23;;
40058;SDS011;25763;49.972;8.568;2023-02-15T09:34:50;12.32;;;11.15;;
40058;SDS011;25763;49.972;8.568;2023-02-15T09:37:15;11.88;;;11.07;;
40058;SDS011;25763;49.972;8.568;2023-02-15T09:39:41;11.27;;;10.40;;
40058;SDS011;25763;49.972;8.568;2023-02-15T10:00:33;12.50;;;11.63;;
40058;SDS011;25763;49.972;8.568;2023-02-15T10:16:56;13.85;;;12.70;;
40058;SDS011;25763;49.972;8.568;2023-02-15T10:20:27;13.43;;;12.23;;
40058;SDS011;25763;49.972;8.568;2023-02-15T10:28:46;14.63;;;13.50;;
40058;SDS011;25763;49.972;8.568;2023-02-15T10:39:28;14.63;;;13.38;;
40058;SDS011;25763;49.972;8.568;2023-02-15T10:44:57;14.90;;;13.70;;
40058;SDS011;25763;49.972;8.568;2023-02-15T10:55:42;14.30;;;13.18;;
40058;SDS011;25763;49.972;8.568;2023-02-15T11:01:05;14.07;;;12.98;;
40058;SDS011;25763;49.972;8.568;2023-02-15T11:06:39;14.27;;;13.25;;
40058;SDS011;25763;49.972;8.568;2023-02-15T11:09:13;14.57;;;13.57;;
40058;SDS011;25763;49.972;8.568;2023-02-15T11:11:43;13.35;;;12.35;;
40058;SDS011;25763;49.972;8.568;2023-02-15T11:17:06;15.32;;;13.90;;
40058;SDS011;25763;49.972;8.568;2023-02-15T11:19:41;17.10;;;15.70;;
40058;SDS011;25763;49.972;8.568;2023-02-15T11:22:14;16.27;;;14.60;;
40058;SDS011;25763;49.972;8.568;2023-02-15T11:24:41;16.83;;;15.45;;
40058;SDS011;25763;49.972;8.568;2023-02-15T11:27:18;15.63;;;14.48;;
40058;SDS011;25763;49.972;8.568;2023-02-15T11:32:30;16.73;;;15.30;;
40058;SDS011;25763;49.972;8.568;2023-02-15T11:37:37;16.10;;;15.00;;
40058;SDS011;25763;49.972;8.568;2023-02-15T11:42:55;17.55;;;16.02;;
40058;SDS011;25763;49.972;8.568;2023-02-15T11:45:30;18.35;;;16.67;;
40058;SDS011;25763;49.972;8.568;2023-02-15T11:47:59;17.70;;;16.33;;
40058;SDS011;25763;49.972;8.568;2023-02-15T11:50:31;17.45;;;15.95;;
40058;SDS011;25763;49.972;8.568;2023-02-15T11:53:09;17.73;;;16.52;;
40058;SDS011;25763;49.972;8.568;2023-02-15T11:55:38;16.95;;;15.65;;
40058;SDS011;25763;49.972;8.568;2023-02-15T11:58:21;19.10;;;17.83;;
40058;SDS011;25763;49.972;8.568;2023-02-15T12:00:48;18.45;;;17.08;;
40058;SDS011;25763;49.972;8.568;2023-02-15T12:03:28;19.15;;;17.27;;
40058;SDS011;25763;49.972;8.568;2023-02-15T12:06:02;17.17;;;15.90;;
40058;SDS011;25763;49.972;8.568;2023-02-15T12:08:36;17.42;;;15.98;;
40058;SDS011;25763;49.972;8.568;2023-02-15T12:11:07;17.05;;;15.70;;
40058;SDS011;25763;49.972;8.568;2023-02-15T12:13:49;19.63;;;18.02;;
40058;SDS011;25763;49.972;8.568;2023-02-15T12:16:20;18.13;;;16.92;;
40058;SDS011;25763;49.972;8.568;2023-02-15T12:18:46;18.85;;;17.33;;
40058;SDS011;25763;49.972;8.568;2023-02-15T12:21:13;17.63;;;16.45;;
40058;SDS011;25763;49.972;8.568;2023-02-15T12:23:48;16.95;;;15.85;;
40058;SDS011;25763;49.972;8.568;2023-02-15T12:26:27;20.50;;;18.55;;
40058;SDS011;25763;49.972;8.568;2023-02-15T12:28:55;18.50;;;17.05;;
40058;SDS011;25763;49.972;8.568;2023-02-15T12:31:27;18.52;;;17.27;;
40058;SDS011;25763;49.972;8.568;2023-02-15T12:33:59;17.55;;;16.25;;
40058;SDS011;25763;49.972;8.568;2023-02-15T12:36:40;20.70;;;18.95;;
40058;SDS011;25763;49.972;8.568;2023-02-15T12:39:19;18.38;;;16.95;;
40058;SDS011;25763;49.972;8.568;2023-02-15T12:41:56;20.88;;;18.02;;
40058;SDS011;25763;49.972;8.568;2023-02-15T12:44:32;16.48;;;15.27;;
40058;SDS011;25763;49.972;8.568;2023-02-15T12:47:10;18.77;;;17.35;;
40058;SDS011;25763;49.972;8.568;2023-02-15T12:49:44;19.00;;;17.08;;
40058;SDS011;25763;49.972;8.568;2023-02-15T12:52:28;21.05;;;19.42;;
40058;SDS011;25763;49.972;8.568;2023-02-15T12:54:54;19.40;;;17.75;;
40058;SDS011;25763;49.972;8.568;2023-02-15T12:57:32;19.58;;;17.70;;
40058;SDS011;25763;49.972;8.568;2023-02-15T13:00:06;17.20;;;15.90;;
40058;SDS011;25763;49.972;8.568;2023-02-15T13:02:36;18.02;;;16.80;;
40058;SDS011;25763;49.972;8.568;2023-02-15T13:08:30;18.30;;;16.92;;
40058;SDS011;25763;49.972;8.568;2023-02-15T13:13:33;19.00;;;17.42;;
40058;SDS011;25763;49.972;8.568;2023-02-15T13:16:11;22.52;;;20.75;;
40058;SDS011;25763;49.972;8.568;2023-02-15T13:18:38;17.83;;;16.63;;
40058;SDS011;25763;49.972;8.568;2023-02-15T13:21:11;20.08;;;18.55;;
40058;SDS011;25763;49.972;8.568;2023-02-15T13:23:42;20.15;;;18.58;;
40058;SDS011;25763;49.972;8.568;2023-02-15T13:26:13;18.13;;;16.63;;
40058;SDS011;25763;49.972;8.568;2023-02-15T13:28:47;18.80;;;17.30;;
40058;SDS011;25763;49.972;8.568;2023-02-15T13:31:18;17.98;;;16.65;;
40058;SDS011;25763;49.972;8.568;2023-02-15T13:33:56;18.65;;;17.13;;
40058;SDS011;25763;49.972;8.568;2023-02-15T13:47:04;19.20;;;17.55;;
40058;SDS011;25763;49.972;8.568;2023-02-15T14:04:48;20.13;;;18.67;;
40058;SDS011;25763;49.972;8.568;2023-02-15T14:07:33;18.40;;;16.92;;
40058;SDS011;25763;49.972;8.568;2023-02-15T14:10:25;22.23;;;20.27;;
40058;SDS011;25763;49.972;8.568;2023-02-15T14:18:37;20.27;;;18.75;;
40058;SDS011;25763;49.972;8.568;2023-02-15T14:21:10;21.25;;;19.02;;
40058;SDS011;25763;49.972;8.568;2023-02-15T14:29:20;17.23;;;15.93;;
40058;SDS011;25763;49.972;8.568;2023-02-15T14:31:58;17.10;;;15.90;;
40058;SDS011;25763;49.972;8.568;2023-02-15T14:37:16;19.48;;;18.02;;
40058;SDS011;25763;49.972;8.568;2023-02-15T14:40:03;16.80;;;15.40;;
40058;SDS011;25763;49.972;8.568;2023-02-15T14:42:57;17.17;;;15.77;;
40058;SDS011;25763;49.972;8.568;2023-02-15T14:45:34;17.25;;;15.77;;
40058;SDS011;25763;49.972;8.568;2023-02-15T14:50:42;17.33;;;15.80;;
40058;SDS011;25763;49.972;8.568;2023-02-15T14:53:24;18.83;;;16.98;;
40058;SDS011;25763;49.972;8.568;2023-02-15T14:58:35;17.90;;;16.48;;
40058;SDS011;25763;49.972;8.568;2023-02-15T15:01:06;18.13;;;16.83;;
40058;SDS011;25763;49.972;8.568;2023-02-15T15:03:34;15.50;;;14.40;;
40058;SDS011;25763;49.972;8.568;2023-02-15T15:06:01;20.20;;;18.33;;
40058;SDS011;25763;49.972;8.568;2023-02-15T15:08:36;17.70;;;16.40;;
40058;SDS011;25763;49.972;8.568;2023-02-15T15:14:09;17.80;;;16.45;;
40058;SDS011;25763;49.972;8.568;2023-02-15T15:19:09;18.05;;;16.73;;
40058;SDS011;25763;49.972;8.568;2023-02-15T15:32:38;17.63;;;16.38;;
40058;SDS011;25763;49.972;8.568;2023-02-15T15:38:38;19.23;;;17.50;;
40058;SDS011;25763;49.972;8.568;2023-02-15T15:47:00;20.05;;;18.30;;
40058;SDS011;25763;49.972;8.568;2023-02-15T15:49:34;18.52;;;17.08;;
40058;SDS011;25763;49.972;8.568;2023-02-15T15:52:01;20.67;;;18.83;;
40058;SDS011;25763;49.972;8.568;2023-02-15T15:54:33;20.38;;;18.58;;
40058;SDS011;25763;49.972;8.568;2023-02-15T15:57:00;18.42;;;16.95;;
40058;SDS011;25763;49.972;8.568;2023-02-15T15:59:29;21.65;;;19.80;;
40058;SDS011;25763;49.972;8.568;2023-02-15T16:02:03;19.20;;;17.67;;
40058;SDS011;25763;49.972;8.568;2023-02-15T16:04:31;20.00;;;18.40;;
40058;SDS011;25763;49.972;8.568;2023-02-15T16:07:13;20.92;;;19.17;;
40058;SDS011;25763;49.972;8.568;2023-02-15T16:12:19;17.50;;;16.20;;
40058;SDS011;25763;49.972;8.568;2023-02-15T16:14:46;16.67;;;15.40;;
40058;SDS011;25763;49.972;8.568;2023-02-15T16:17:19;21.67;;;19.77;;
40058;SDS011;25763;49.972;8.568;2023-02-15T16:19:47;19.33;;;17.88;;
40058;SDS011;25763;49.972;8.568;2023-02-15T16:22:24;17.83;;;16.38;;
40058;SDS011;25763;49.972;8.568;2023-02-15T16:27:41;18.98;;;17.42;;
40058;SDS011;25763;49.972;8.568;2023-02-15T16:33:03;19.25;;;17.73;;
40058;SDS011;25763;49.972;8.568;2023-02-15T16:35:29;21.50;;;19.85;;
40058;SDS011;25763;49.972;8.568;2023-02-15T16:37:55;19.67;;;17.77;;
40058;SDS011;25763;49.972;8.568;2023-02-15T16:42:53;17.08;;;15.75;;
40058;SDS011;25763;49.972;8.568;2023-02-15T16:45:24;18.55;;;17.05;;
40058;SDS011;25763;49.972;8.568;2023-02-15T16:47:53;20.40;;;18.85;;
40058;SDS011;25763;49.972;8.568;2023-02-15T16:50:45;20.15;;;18.50;;
40058;SDS011;25763;49.972;8.568;2023-02-15T16:53:14;19.13;;;17.75;;
40058;SDS011;25763;49.972;8.568;2023-02-15T16:55:44;17.77;;;16.52;;
40058;SDS011;25763;49.972;8.568;2023-02-15T16:58:15;19.00;;;17.27;;
40058;SDS011;25763;49.972;8.568;2023-02-15T17:00:45;19.60;;;17.83;;
40058;SDS011;25763;49.972;8.568;2023-02-15T17:10:41;18.23;;;17.02;;
40058;SDS011;25763;49.972;8.568;2023-02-15T17:15:38;20.20;;;18.23;;
40058;SDS011;25763;49.972;8.568;2023-02-15T17:18:17;17.73;;;16.33;;
40058;SDS011;25763;49.972;8.568;2023-02-15T17:20:45;18.73;;;17.33;;
40058;SDS011;25763;49.972;8.568;2023-02-15T17:26:14;18.48;;;16.92;;
40058;SDS011;25763;49.972;8.568;2023-02-15T17:28:45;14.75;;;13.40;;
40058;SDS011;25763;49.972;8.568;2023-02-15T17:33:42;16.30;;;15.10;;
40058;SDS011;25763;49.972;8.568;2023-02-15T17:36:14;18.30;;;16.65;;
40058;SDS011;25763;49.972;8.568;2023-02-15T17:39:29;16.25;;;15.10;;
40058;SDS011;25763;49.972;8.568;2023-02-15T17:41:45;16.33;;;14.68;;
40058;SDS011;25763;49.972;8.568;2023-02-15T17:44:12;16.33;;;14.35;;
40058;SDS011;25763;49.972;8.568;2023-02-15T17:46:40;18.40;;;16.75;;
40058;SDS011;25763;49.972;8.568;2023-02-15T17:49:06;19.05;;;17.35;;
40058;SDS011;25763;49.972;8.568;2023-02-15T17:51:39;17.67;;;15.20;;
40058;SDS011;25763;49.972;8.568;2023-02-15T17:54:04;19.85;;;18.40;;
40058;SDS011;25763;49.972;8.568;2023-02-15T17:56:48;16.98;;;15.70;;
40058;SDS011;25763;49.972;8.568;2023-02-15T17:59:14;19.50;;;17.98;;
40058;SDS011;25763;49.972;8.568;2023-02-15T18:01:44;16.98;;;15.80;;
40058;SDS011;25763;49.972;8.568;2023-02-15T18:04:31;18.45;;;17.02;;
40058;SDS011;25763;49.972;8.568;2023-02-15T18:07:16;19.13;;;17.38;;
40058;SDS011;25763;49.972;8.568;2023-02-15T18:10:05;17.42;;;15.88;;
40058;SDS011;25763;49.972;8.568;2023-02-15T18:12:56;16.20;;;14.90;;
40058;SDS011;25763;49.972;8.568;2023-02-15T18:15:22;18.48;;;16.45;;